sensor_id;sensor_type;location;lat;lon;timestamp;P1;durP1;ratioP1;P2;durP2;ratioP2
71236;SDS011;58984;51.960;5.582;2023-07-29T00:00:52;3.47;;;2.15;;
71236;SDS011;58984;51.960;5.582;2023-07-29T00:03:18;2.22;;;1.92;;
71236;SDS011;58984;51.960;5.582;2023-07-29T00:05:43;4.35;;;1.85;;
71236;SDS011;58984;51.960;5.582;2023-07-29T00:08:09;3.03;;;2.30;;
71236;SDS011;58984;51.960;5.582;2023-07-29T00:10:37;4.55;;;2.30;;
71236;SDS011;58984;51.960;5.582;2023-07-29T00:13:04;3.30;;;2.10;;
71236;SDS011;58984;51.960;5.582;2023-07-29T00:15:30;2.50;;;1.80;;
71236;SDS011;58984;51.960;5.582;2023-07-29T00:17:56;4.43;;;1.90;;
71236;SDS011;58984;51.960;5.582;2023-07-29T00:20:21;2.92;;;2.13;;
71236;SDS011;58984;51.960;5.582;2023-07-29T00:22:47;3.10;;;2.30;;
71236;SDS011;58984;51.960;5.582;2023-07-29T00:25:15;2.50;;;1.85;;
71236;SDS011;58984;51.960;5.582;2023-07-29T00:27:41;4.47;;;1.88;;
71236;SDS011;58984;51.960;5.582;2023-07-29T00:30:07;3.80;;;2.10;;
71236;SDS011;58984;51.960;5.582;2023-07-29T00:32:35;4.45;;;2.25;;
71236;SDS011;58984;51.960;5.582;2023-07-29T00:35:01;2.88;;;1.92;;
71236;SDS011;58984;51.960;5.582;2023-07-29T00:37:27;3.22;;;1.85;;
71236;SDS011;58984;51.960;5.582;2023-07-29T00:39:53;2.65;;;1.90;;
71236;SDS011;58984;51.960;5.582;2023-07-29T00:42:19;3.58;;;1.90;;
71236;SDS011;58984;51.960;5.582;2023-07-29T00:44:44;2.30;;;1.90;;
71236;SDS011;58984;51.960;5.582;2023-07-29T00:47:10;2.80;;;2.10;;
71236;SDS011;58984;51.960;5.582;2023-07-29T00:49:37;2.38;;;2.00;;
71236;SDS011;58984;51.960;5.582;2023-07-29T00:52:03;2.72;;;2.03;;
71236;SDS011;58984;51.960;5.582;2023-07-29T00:54:29;1.95;;;1.77;;
71236;SDS011;58984;51.960;5.582;2023-07-29T00:56:55;3.25;;;1.98;;
71236;SDS011;58984;51.960;5.582;2023-07-29T00:59:20;4.72;;;2.10;;
71236;SDS011;58984;51.960;5.582;2023-07-29T01:01:46;4.28;;;2.33;;
71236;SDS011;58984;51.960;5.582;2023-07-29T01:04:11;3.92;;;2.42;;
71236;SDS011;58984;51.960;5.582;2023-07-29T01:17:26;4.07;;;2.33;;
71236;SDS011;58984;51.960;5.582;2023-07-29T01:20:23;6.00;;;3.22;;
71236;SDS011;58984;51.960;5.582;2023-07-29T01:22:50;3.88;;;2.92;;
71236;SDS011;58984;51.960;5.582;2023-07-29T01:25:16;6.60;;;3.42;;
71236;SDS011;58984;51.960;5.582;2023-07-29T01:27:43;4.60;;;3.35;;
71236;SDS011;58984;51.960;5.582;2023-07-29T01:30:10;6.78;;;3.63;;
71236;SDS011;58984;51.960;5.582;2023-07-29T01:32:44;4.97;;;3.50;;
71236;SDS011;58984;51.960;5.582;2023-07-29T01:37:49;8.95;;;3.92;;
71236;SDS011;58984;51.960;5.582;2023-07-29T01:40:19;5.90;;;3.83;;
71236;SDS011;58984;51.960;5.582;2023-07-29T01:42:48;5.78;;;4.10;;
71236;SDS011;58984;51.960;5.582;2023-07-29T01:45:14;6.53;;;3.75;;
71236;SDS011;58984;51.960;5.582;2023-07-29T01:47:40;5.68;;;4.10;;
71236;SDS011;58984;51.960;5.582;2023-07-29T01:50:06;6.15;;;4.18;;
71236;SDS011;58984;51.960;5.582;2023-07-29T01:52:32;6.40;;;4.18;;
71236;SDS011;58984;51.960;5.582;2023-07-29T01:54:58;8.55;;;4.25;;
71236;SDS011;58984;51.960;5.582;2023-07-29T01:57:24;5.85;;;3.70;;
71236;SDS011;58984;51.960;5.582;2023-07-29T01:59:49;5.82;;;4.07;;
71236;SDS011;58984;51.960;5.582;2023-07-29T02:02:15;6.30;;;4.25;;
71236;SDS011;58984;51.960;5.582;2023-07-29T02:04:40;6.45;;;3.88;;
71236;SDS011;58984;51.960;5.582;2023-07-29T02:07:06;6.30;;;4.40;;
71236;SDS011;58984;51.960;5.582;2023-07-29T02:09:31;6.93;;;4.15;;
71236;SDS011;58984;51.960;5.582;2023-07-29T02:11:57;5.75;;;4.43;;
71236;SDS011;58984;51.960;5.582;2023-07-29T02:14:23;6.25;;;4.57;;
71236;SDS011;58984;51.960;5.582;2023-07-29T02:16:48;5.85;;;4.22;;
71236;SDS011;58984;51.960;5.582;2023-07-29T02:19:15;6.93;;;4.53;;
71236;SDS011;58984;51.960;5.582;2023-07-29T02:21:41;8.00;;;4.30;;
71236;SDS011;58984;51.960;5.582;2023-07-29T02:24:06;5.20;;;3.92;;
71236;SDS011;58984;51.960;5.582;2023-07-29T02:26:32;6.82;;;4.15;;
71236;SDS011;58984;51.960;5.582;2023-07-29T02:28:57;4.80;;;3.65;;
71236;SDS011;58984;51.960;5.582;2023-07-29T02:31:23;5.95;;;3.67;;
71236;SDS011;58984;51.960;5.582;2023-07-29T02:33:50;6.65;;;3.97;;
71236;SDS011;58984;51.960;5.582;2023-07-29T02:36:16;7.55;;;4.82;;
71236;SDS011;58984;51.960;5.582;2023-07-29T02:38:43;4.88;;;3.78;;
71236;SDS011;58984;51.960;5.582;2023-07-29T02:41:09;7.53;;;3.75;;
71236;SDS011;58984;51.960;5.582;2023-07-29T02:43:37;6.53;;;4.30;;
71236;SDS011;58984;51.960;5.582;2023-07-29T02:46:03;6.75;;;3.75;;
71236;SDS011;58984;51.960;5.582;2023-07-29T02:48:28;6.32;;;3.70;;
71236;SDS011;58984;51.960;5.582;2023-07-29T02:50:55;5.45;;;3.03;;
71236;SDS011;58984;51.960;5.582;2023-07-29T02:53:21;6.97;;;4.38;;
71236;SDS011;58984;51.960;5.582;2023-07-29T02:55:47;6.55;;;3.47;;
71236;SDS011;58984;51.960;5.582;2023-07-29T02:58:13;6.03;;;3.20;;
71236;SDS011;58984;51.960;5.582;2023-07-29T03:00:39;4.55;;;3.05;;
71236;SDS011;58984;51.960;5.582;2023-07-29T03:03:08;6.15;;;3.58;;
71236;SDS011;58984;51.960;5.582;2023-07-29T03:05:34;4.88;;;3.67;;
71236;SDS011;58984;51.960;5.582;2023-07-29T03:08:00;6.38;;;3.40;;
71236;SDS011;58984;51.960;5.582;2023-07-29T03:10:25;5.20;;;3.35;;
71236;SDS011;58984;51.960;5.582;2023-07-29T03:12:53;5.88;;;3.67;;
71236;SDS011;58984;51.960;5.582;2023-07-29T03:15:22;3.97;;;2.80;;
71236;SDS011;58984;51.960;5.582;2023-07-29T03:17:49;4.63;;;3.50;;
71236;SDS011;58984;51.960;5.582;2023-07-29T03:20:15;5.80;;;3.05;;
71236;SDS011;58984;51.960;5.582;2023-07-29T03:22:42;7.10;;;2.90;;
71236;SDS011;58984;51.960;5.582;2023-07-29T03:25:08;5.68;;;3.38;;
71236;SDS011;58984;51.960;5.582;2023-07-29T03:27:34;6.72;;;2.97;;
71236;SDS011;58984;51.960;5.582;2023-07-29T03:30:01;4.78;;;2.67;;
71236;SDS011;58984;51.960;5.582;2023-07-29T03:32:28;4.88;;;2.70;;
71236;SDS011;58984;51.960;5.582;2023-07-29T03:34:54;6.68;;;3.35;;
71236;SDS011;58984;51.960;5.582;2023-07-29T03:37:19;4.00;;;2.53;;
71236;SDS011;58984;51.960;5.582;2023-07-29T03:39:46;3.95;;;2.53;;
71236;SDS011;58984;51.960;5.582;2023-07-29T03:42:12;6.00;;;2.97;;
71236;SDS011;58984;51.960;5.582;2023-07-29T03:44:37;4.18;;;2.90;;
71236;SDS011;58984;51.960;5.582;2023-07-29T03:47:04;7.28;;;2.88;;
71236;SDS011;58984;51.960;5.582;2023-07-29T03:49:31;6.00;;;2.60;;
71236;SDS011;58984;51.960;5.582;2023-07-29T03:51:57;6.97;;;2.85;;
71236;SDS011;58984;51.960;5.582;2023-07-29T03:54:22;4.65;;;2.88;;
71236;SDS011;58984;51.960;5.582;2023-07-29T03:56:48;4.32;;;2.50;;
71236;SDS011;58984;51.960;5.582;2023-07-29T03:59:13;3.95;;;2.35;;
71236;SDS011;58984;51.960;5.582;2023-07-29T04:01:39;4.70;;;2.70;;
71236;SDS011;58984;51.960;5.582;2023-07-29T04:04:05;2.40;;;2.20;;
71236;SDS011;58984;51.960;5.582;2023-07-29T04:06:30;3.08;;;2.42;;
71236;SDS011;58984;51.960;5.582;2023-07-29T04:08:57;4.15;;;2.35;;
71236;SDS011;58984;51.960;5.582;2023-07-29T04:11:23;2.72;;;2.08;;
71236;SDS011;58984;51.960;5.582;2023-07-29T04:13:49;3.88;;;2.22;;
71236;SDS011;58984;51.960;5.582;2023-07-29T04:16:14;2.95;;;2.00;;
71236;SDS011;58984;51.960;5.582;2023-07-29T04:18:41;5.28;;;2.20;;
71236;SDS011;58984;51.960;5.582;2023-07-29T04:21:07;3.33;;;1.70;;
71236;SDS011;58984;51.960;5.582;2023-07-29T04:23:32;3.85;;;2.47;;
71236;SDS011;58984;51.960;5.582;2023-07-29T04:25:58;3.25;;;2.05;;
71236;SDS011;58984;51.960;5.582;2023-07-29T04:28:24;3.38;;;1.67;;
71236;SDS011;58984;51.960;5.582;2023-07-29T04:30:49;3.70;;;1.90;;
71236;SDS011;58984;51.960;5.582;2023-07-29T04:33:15;3.05;;;2.05;;
71236;SDS011;58984;51.960;5.582;2023-07-29T04:35:40;3.80;;;2.17;;
71236;SDS011;58984;51.960;5.582;2023-07-29T04:38:06;4.97;;;2.17;;
71236;SDS011;58984;51.960;5.582;2023-07-29T04:40:35;3.05;;;2.28;;
71236;SDS011;58984;51.960;5.582;2023-07-29T04:43:01;2.75;;;1.98;;
71236;SDS011;58984;51.960;5.582;2023-07-29T04:45:29;3.85;;;2.33;;
71236;SDS011;58984;51.960;5.582;2023-07-29T04:47:56;3.60;;;2.13;;
71236;SDS011;58984;51.960;5.582;2023-07-29T04:50:23;4.80;;;2.20;;
71236;SDS011;58984;51.960;5.582;2023-07-29T04:52:48;2.75;;;1.88;;
71236;SDS011;58984;51.960;5.582;2023-07-29T04:55:14;4.65;;;2.17;;
71236;SDS011;58984;51.960;5.582;2023-07-29T04:57:40;3.25;;;1.95;;
71236;SDS011;58984;51.960;5.582;2023-07-29T05:00:05;3.53;;;2.13;;
71236;SDS011;58984;51.960;5.582;2023-07-29T05:02:31;2.83;;;2.10;;
71236;SDS011;58984;51.960;5.582;2023-07-29T05:04:57;3.60;;;1.85;;
71236;SDS011;58984;51.960;5.582;2023-07-29T05:07:22;4.00;;;2.22;;
71236;SDS011;58984;51.960;5.582;2023-07-29T05:09:48;2.50;;;2.25;;
71236;SDS011;58984;51.960;5.582;2023-07-29T05:12:14;2.58;;;1.75;;
71236;SDS011;58984;51.960;5.582;2023-07-29T05:14:39;3.40;;;2.10;;
71236;SDS011;58984;51.960;5.582;2023-07-29T05:17:05;3.25;;;2.28;;
71236;SDS011;58984;51.960;5.582;2023-07-29T05:19:31;3.35;;;2.20;;
71236;SDS011;58984;51.960;5.582;2023-07-29T05:21:56;3.35;;;2.63;;
71236;SDS011;58984;51.960;5.582;2023-07-29T05:24:22;3.78;;;2.67;;
71236;SDS011;58984;51.960;5.582;2023-07-29T05:26:48;3.47;;;2.42;;
71236;SDS011;58984;51.960;5.582;2023-07-29T05:29:14;4.18;;;2.38;;
71236;SDS011;58984;51.960;5.582;2023-07-29T05:31:40;3.00;;;2.55;;
71236;SDS011;58984;51.960;5.582;2023-07-29T05:34:05;3.72;;;2.50;;
71236;SDS011;58984;51.960;5.582;2023-07-29T05:36:31;4.22;;;2.47;;
71236;SDS011;58984;51.960;5.582;2023-07-29T05:38:57;2.80;;;2.30;;
71236;SDS011;58984;51.960;5.582;2023-07-29T05:41:23;4.85;;;2.78;;
71236;SDS011;58984;51.960;5.582;2023-07-29T05:43:51;3.30;;;2.28;;
71236;SDS011;58984;51.960;5.582;2023-07-29T05:46:16;3.33;;;2.70;;
71236;SDS011;58984;51.960;5.582;2023-07-29T05:48:42;3.42;;;2.10;;
71236;SDS011;58984;51.960;5.582;2023-07-29T05:51:07;4.15;;;2.58;;
71236;SDS011;58984;51.960;5.582;2023-07-29T05:53:33;3.97;;;2.50;;
71236;SDS011;58984;51.960;5.582;2023-07-29T05:55:58;4.50;;;2.55;;
71236;SDS011;58984;51.960;5.582;2023-07-29T05:58:24;5.03;;;2.47;;
71236;SDS011;58984;51.960;5.582;2023-07-29T06:00:49;4.97;;;2.70;;
71236;SDS011;58984;51.960;5.582;2023-07-29T06:03:18;4.25;;;2.60;;
71236;SDS011;58984;51.960;5.582;2023-07-29T06:05:43;4.35;;;2.30;;
71236;SDS011;58984;51.960;5.582;2023-07-29T06:08:09;3.28;;;2.13;;
71236;SDS011;58984;51.960;5.582;2023-07-29T06:10:35;5.22;;;2.53;;
71236;SDS011;58984;51.960;5.582;2023-07-29T06:13:00;3.83;;;2.58;;
71236;SDS011;58984;51.960;5.582;2023-07-29T06:15:26;4.03;;;2.67;;
71236;SDS011;58984;51.960;5.582;2023-07-29T06:17:51;5.20;;;2.50;;
71236;SDS011;58984;51.960;5.582;2023-07-29T06:20:17;5.13;;;2.67;;
71236;SDS011;58984;51.960;5.582;2023-07-29T06:22:43;4.10;;;2.47;;
71236;SDS011;58984;51.960;5.582;2023-07-29T06:25:08;4.75;;;2.53;;
71236;SDS011;58984;51.960;5.582;2023-07-29T06:27:34;6.22;;;2.85;;
71236;SDS011;58984;51.960;5.582;2023-07-29T06:29:59;3.30;;;2.40;;
71236;SDS011;58984;51.960;5.582;2023-07-29T06:32:25;3.60;;;2.40;;
71236;SDS011;58984;51.960;5.582;2023-07-29T06:34:51;3.40;;;2.60;;
71236;SDS011;58984;51.960;5.582;2023-07-29T06:37:19;5.60;;;2.72;;
71236;SDS011;58984;51.960;5.582;2023-07-29T06:39:45;4.20;;;2.42;;
71236;SDS011;58984;51.960;5.582;2023-07-29T06:42:10;5.93;;;2.72;;
71236;SDS011;58984;51.960;5.582;2023-07-29T06:44:36;7.28;;;2.67;;
71236;SDS011;58984;51.960;5.582;2023-07-29T06:47:01;5.22;;;2.55;;
71236;SDS011;58984;51.960;5.582;2023-07-29T06:49:27;2.83;;;2.45;;
71236;SDS011;58984;51.960;5.582;2023-07-29T06:51:53;3.85;;;2.60;;
71236;SDS011;58984;51.960;5.582;2023-07-29T06:54:18;4.60;;;2.67;;
71236;SDS011;58984;51.960;5.582;2023-07-29T06:56:48;5.00;;;2.45;;
71236;SDS011;58984;51.960;5.582;2023-07-29T06:59:14;4.05;;;2.38;;
71236;SDS011;58984;51.960;5.582;2023-07-29T07:01:39;6.28;;;3.22;;
71236;SDS011;58984;51.960;5.582;2023-07-29T07:04:05;4.80;;;3.00;;
71236;SDS011;58984;51.960;5.582;2023-07-29T07:06:30;6.30;;;2.60;;
71236;SDS011;58984;51.960;5.582;2023-07-29T07:08:56;5.82;;;2.47;;
71236;SDS011;58984;51.960;5.582;2023-07-29T07:11:21;4.55;;;2.80;;
71236;SDS011;58984;51.960;5.582;2023-07-29T07:13:47;4.65;;;2.90;;
71236;SDS011;58984;51.960;5.582;2023-07-29T07:16:13;4.70;;;2.85;;
71236;SDS011;58984;51.960;5.582;2023-07-29T07:18:38;3.88;;;2.75;;
71236;SDS011;58984;51.960;5.582;2023-07-29T07:21:04;4.90;;;3.00;;
71236;SDS011;58984;51.960;5.582;2023-07-29T07:23:29;3.75;;;2.97;;
71236;SDS011;58984;51.960;5.582;2023-07-29T07:25:55;3.95;;;2.70;;
71236;SDS011;58984;51.960;5.582;2023-07-29T07:28:20;4.72;;;2.80;;
71236;SDS011;58984;51.960;5.582;2023-07-29T07:30:46;4.15;;;3.00;;
71236;SDS011;58984;51.960;5.582;2023-07-29T07:33:11;7.00;;;3.10;;
71236;SDS011;58984;51.960;5.582;2023-07-29T07:35:37;5.65;;;3.28;;
71236;SDS011;58984;51.960;5.582;2023-07-29T07:38:02;4.80;;;3.15;;
71236;SDS011;58984;51.960;5.582;2023-07-29T07:40:29;4.78;;;3.22;;
71236;SDS011;58984;51.960;5.582;2023-07-29T07:42:56;6.68;;;3.72;;
71236;SDS011;58984;51.960;5.582;2023-07-29T07:45:21;4.72;;;3.55;;
71236;SDS011;58984;51.960;5.582;2023-07-29T07:47:47;3.85;;;2.55;;
71236;SDS011;58984;51.960;5.582;2023-07-29T07:50:13;3.85;;;3.00;;
71236;SDS011;58984;51.960;5.582;2023-07-29T07:52:39;5.07;;;3.22;;
71236;SDS011;58984;51.960;5.582;2023-07-29T07:55:05;3.15;;;2.85;;
71236;SDS011;58984;51.960;5.582;2023-07-29T07:57:31;4.88;;;3.60;;
71236;SDS011;58984;51.960;5.582;2023-07-29T07:59:56;4.95;;;3.25;;
71236;SDS011;58984;51.960;5.582;2023-07-29T08:02:22;6.03;;;3.28;;
71236;SDS011;58984;51.960;5.582;2023-07-29T08:04:48;5.18;;;3.35;;
71236;SDS011;58984;51.960;5.582;2023-07-29T08:07:13;6.55;;;3.42;;
71236;SDS011;58984;51.960;5.582;2023-07-29T08:09:39;5.88;;;3.75;;
71236;SDS011;58984;51.960;5.582;2023-07-29T08:12:04;6.22;;;3.50;;
71236;SDS011;58984;51.960;5.582;2023-07-29T08:14:31;6.55;;;3.85;;
71236;SDS011;58984;51.960;5.582;2023-07-29T08:16:56;4.45;;;3.00;;
71236;SDS011;58984;51.960;5.582;2023-07-29T08:19:22;7.18;;;3.50;;
71236;SDS011;58984;51.960;5.582;2023-07-29T08:21:48;6.28;;;3.42;;
71236;SDS011;58984;51.960;5.582;2023-07-29T08:24:14;4.88;;;2.70;;
71236;SDS011;58984;51.960;5.582;2023-07-29T08:26:39;4.40;;;2.88;;
71236;SDS011;58984;51.960;5.582;2023-07-29T08:29:05;5.40;;;3.17;;
71236;SDS011;58984;51.960;5.582;2023-07-29T08:31:30;5.82;;;3.20;;
71236;SDS011;58984;51.960;5.582;2023-07-29T08:33:58;2.83;;;2.60;;
71236;SDS011;58984;51.960;5.582;2023-07-29T08:36:24;5.28;;;2.72;;
71236;SDS011;58984;51.960;5.582;2023-07-29T08:38:50;2.85;;;2.47;;
71236;SDS011;58984;51.960;5.582;2023-07-29T08:43:48;3.85;;;3.00;;
71236;SDS011;58984;51.960;5.582;2023-07-29T08:46:27;3.45;;;2.83;;
71236;SDS011;58984;51.960;5.582;2023-07-29T08:48:54;3.05;;;2.65;;
71236;SDS011;58984;51.960;5.582;2023-07-29T08:51:21;3.08;;;2.78;;
71236;SDS011;58984;51.960;5.582;2023-07-29T08:53:48;4.07;;;2.78;;
71236;SDS011;58984;51.960;5.582;2023-07-29T08:56:14;3.13;;;2.63;;
71236;SDS011;58984;51.960;5.582;2023-07-29T08:58:40;4.88;;;3.08;;
71236;SDS011;58984;51.960;5.582;2023-07-29T09:01:06;3.58;;;3.20;;
71236;SDS011;58984;51.960;5.582;2023-07-29T09:03:32;3.50;;;3.17;;
71236;SDS011;58984;51.960;5.582;2023-07-29T09:05:58;3.97;;;3.58;;
71236;SDS011;58984;51.960;5.582;2023-07-29T09:08:24;3.80;;;3.10;;
71236;SDS011;58984;51.960;5.582;2023-07-29T09:10:52;4.60;;;3.42;;
71236;SDS011;58984;51.960;5.582;2023-07-29T09:13:18;5.93;;;3.72;;
71236;SDS011;58984;51.960;5.582;2023-07-29T09:15:44;3.55;;;3.20;;
71236;SDS011;58984;51.960;5.582;2023-07-29T09:18:12;3.30;;;3.00;;
71236;SDS011;58984;51.960;5.582;2023-07-29T09:20:41;6.35;;;4.18;;
71236;SDS011;58984;51.960;5.582;2023-07-29T09:23:07;5.97;;;3.92;;
71236;SDS011;58984;51.960;5.582;2023-07-29T09:25:35;3.90;;;3.17;;
71236;SDS011;58984;51.960;5.582;2023-07-29T09:28:02;5.47;;;3.42;;
71236;SDS011;58984;51.960;5.582;2023-07-29T09:30:40;5.57;;;3.17;;
71236;SDS011;58984;51.960;5.582;2023-07-29T09:33:08;5.43;;;3.00;;
71236;SDS011;58984;51.960;5.582;2023-07-29T09:35:35;4.15;;;2.63;;
71236;SDS011;58984;51.960;5.582;2023-07-29T09:38:02;3.22;;;2.80;;
71236;SDS011;58984;51.960;5.582;2023-07-29T09:40:33;3.90;;;2.50;;
71236;SDS011;58984;51.960;5.582;2023-07-29T09:43:01;2.90;;;2.25;;
71236;SDS011;58984;51.960;5.582;2023-07-29T09:45:27;3.63;;;2.85;;
71236;SDS011;58984;51.960;5.582;2023-07-29T09:47:53;6.40;;;2.45;;
71236;SDS011;58984;51.960;5.582;2023-07-29T09:50:23;5.25;;;2.30;;
71236;SDS011;58984;51.960;5.582;2023-07-29T09:52:50;4.47;;;2.40;;
71236;SDS011;58984;51.960;5.582;2023-07-29T09:55:21;2.30;;;2.00;;
71236;SDS011;58984;51.960;5.582;2023-07-29T10:00:18;3.47;;;2.10;;
71236;SDS011;58984;51.960;5.582;2023-07-29T10:02:44;3.28;;;2.35;;
71236;SDS011;58984;51.960;5.582;2023-07-29T10:05:10;3.45;;;2.30;;
71236;SDS011;58984;51.960;5.582;2023-07-29T10:07:36;3.05;;;2.13;;
71236;SDS011;58984;51.960;5.582;2023-07-29T10:10:03;2.00;;;1.67;;
71236;SDS011;58984;51.960;5.582;2023-07-29T10:12:33;5.95;;;2.25;;
71236;SDS011;58984;51.960;5.582;2023-07-29T10:15:00;2.17;;;1.75;;
71236;SDS011;58984;51.960;5.582;2023-07-29T10:17:29;2.47;;;1.88;;
71236;SDS011;58984;51.960;5.582;2023-07-29T10:19:56;4.10;;;2.10;;
71236;SDS011;58984;51.960;5.582;2023-07-29T10:22:24;2.05;;;1.67;;
71236;SDS011;58984;51.960;5.582;2023-07-29T10:24:53;3.00;;;1.92;;
71236;SDS011;58984;51.960;5.582;2023-07-29T10:27:21;2.03;;;1.70;;
71236;SDS011;58984;51.960;5.582;2023-07-29T10:29:49;2.33;;;1.88;;
71236;SDS011;58984;51.960;5.582;2023-07-29T10:32:18;2.60;;;2.00;;
71236;SDS011;58984;51.960;5.582;2023-07-29T10:34:46;3.60;;;1.90;;
71236;SDS011;58984;51.960;5.582;2023-07-29T10:37:12;3.72;;;2.10;;
71236;SDS011;58984;51.960;5.582;2023-07-29T10:39:38;2.15;;;1.88;;
71236;SDS011;58984;51.960;5.582;2023-07-29T10:42:05;3.33;;;1.95;;
71236;SDS011;58984;51.960;5.582;2023-07-29T10:47:18;3.30;;;2.00;;
71236;SDS011;58984;51.960;5.582;2023-07-29T10:49:50;3.47;;;2.10;;
71236;SDS011;58984;51.960;5.582;2023-07-29T10:52:29;2.95;;;2.10;;
71236;SDS011;58984;51.960;5.582;2023-07-29T10:55:01;3.03;;;2.38;;
71236;SDS011;58984;51.960;5.582;2023-07-29T10:57:38;3.85;;;2.10;;
71236;SDS011;58984;51.960;5.582;2023-07-29T11:00:06;2.17;;;1.85;;
71236;SDS011;58984;51.960;5.582;2023-07-29T11:02:36;1.80;;;1.70;;
71236;SDS011;58984;51.960;5.582;2023-07-29T11:05:06;3.03;;;2.10;;
71236;SDS011;58984;51.960;5.582;2023-07-29T11:07:48;3.97;;;2.20;;
71236;SDS011;58984;51.960;5.582;2023-07-29T11:10:14;3.90;;;2.25;;
71236;SDS011;58984;51.960;5.582;2023-07-29T11:17:37;3.40;;;2.00;;
71236;SDS011;58984;51.960;5.582;2023-07-29T11:20:05;2.58;;;1.70;;
71236;SDS011;58984;51.960;5.582;2023-07-29T11:22:32;2.65;;;1.90;;
71236;SDS011;58984;51.960;5.582;2023-07-29T11:24:58;4.22;;;2.33;;
71236;SDS011;58984;51.960;5.582;2023-07-29T11:27:23;2.75;;;2.13;;
71236;SDS011;58984;51.960;5.582;2023-07-29T11:29:49;2.42;;;1.90;;
71236;SDS011;58984;51.960;5.582;2023-07-29T11:32:15;3.03;;;1.85;;
71236;SDS011;58984;51.960;5.582;2023-07-29T11:34:41;4.05;;;2.33;;
71236;SDS011;58984;51.960;5.582;2023-07-29T11:37:11;5.03;;;2.47;;
71236;SDS011;58984;51.960;5.582;2023-07-29T11:39:40;4.32;;;2.20;;
71236;SDS011;58984;51.960;5.582;2023-07-29T11:42:06;3.72;;;2.40;;
71236;SDS011;58984;51.960;5.582;2023-07-29T11:44:32;7.57;;;2.30;;
71236;SDS011;58984;51.960;5.582;2023-07-29T11:46:57;2.63;;;1.60;;
71236;SDS011;58984;51.960;5.582;2023-07-29T11:49:23;5.93;;;2.40;;
71236;SDS011;58984;51.960;5.582;2023-07-29T11:51:48;2.55;;;1.70;;
71236;SDS011;58984;51.960;5.582;2023-07-29T11:54:15;1.90;;;1.70;;
71236;SDS011;58984;51.960;5.582;2023-07-29T11:56:41;2.75;;;2.22;;
71236;SDS011;58984;51.960;5.582;2023-07-29T11:59:06;3.78;;;2.03;;
71236;SDS011;58984;51.960;5.582;2023-07-29T12:01:32;4.78;;;2.10;;
71236;SDS011;58984;51.960;5.582;2023-07-29T12:03:58;3.15;;;1.75;;
71236;SDS011;58984;51.960;5.582;2023-07-29T12:06:24;3.83;;;1.75;;
71236;SDS011;58984;51.960;5.582;2023-07-29T12:08:50;2.72;;;2.00;;
71236;SDS011;58984;51.960;5.582;2023-07-29T12:11:16;2.75;;;1.60;;
71236;SDS011;58984;51.960;5.582;2023-07-29T12:13:42;3.03;;;1.50;;
71236;SDS011;58984;51.960;5.582;2023-07-29T12:16:08;3.15;;;1.90;;
71236;SDS011;58984;51.960;5.582;2023-07-29T12:18:34;2.60;;;1.73;;
71236;SDS011;58984;51.960;5.582;2023-07-29T12:21:01;3.42;;;1.60;;
71236;SDS011;58984;51.960;5.582;2023-07-29T12:23:28;2.88;;;1.80;;
71236;SDS011;58984;51.960;5.582;2023-07-29T12:25:58;3.35;;;1.50;;
71236;SDS011;58984;51.960;5.582;2023-07-29T12:28:24;2.78;;;1.65;;
71236;SDS011;58984;51.960;5.582;2023-07-29T12:30:57;2.90;;;1.52;;
71236;SDS011;58984;51.960;5.582;2023-07-29T12:33:34;1.80;;;1.70;;
71236;SDS011;58984;51.960;5.582;2023-07-29T12:36:01;1.90;;;1.50;;
71236;SDS011;58984;51.960;5.582;2023-07-29T12:38:27;2.38;;;1.30;;
71236;SDS011;58984;51.960;5.582;2023-07-29T12:40:53;2.60;;;1.25;;
71236;SDS011;58984;51.960;5.582;2023-07-29T12:43:19;5.57;;;1.88;;
71236;SDS011;58984;51.960;5.582;2023-07-29T12:45:45;3.00;;;1.55;;
71236;SDS011;58984;51.960;5.582;2023-07-29T12:48:11;3.05;;;1.48;;
71236;SDS011;58984;51.960;5.582;2023-07-29T12:50:37;2.10;;;1.55;;
71236;SDS011;58984;51.960;5.582;2023-07-29T12:53:04;1.83;;;1.60;;
71236;SDS011;58984;51.960;5.582;2023-07-29T12:55:30;2.58;;;1.90;;
71236;SDS011;58984;51.960;5.582;2023-07-29T12:57:55;2.35;;;1.70;;
71236;SDS011;58984;51.960;5.582;2023-07-29T13:00:23;2.25;;;1.92;;
71236;SDS011;58984;51.960;5.582;2023-07-29T13:02:48;3.10;;;2.10;;
71236;SDS011;58984;51.960;5.582;2023-07-29T13:05:14;2.10;;;1.90;;
71236;SDS011;58984;51.960;5.582;2023-07-29T13:07:40;4.13;;;2.20;;
71236;SDS011;58984;51.960;5.582;2023-07-29T13:10:06;6.55;;;2.90;;
71236;SDS011;58984;51.960;5.582;2023-07-29T13:12:32;4.47;;;2.70;;
71236;SDS011;58984;51.960;5.582;2023-07-29T13:14:58;3.80;;;2.47;;
71236;SDS011;58984;51.960;5.582;2023-07-29T13:17:24;3.53;;;3.20;;
71236;SDS011;58984;51.960;5.582;2023-07-29T13:19:50;3.55;;;3.25;;
71236;SDS011;58984;51.960;5.582;2023-07-29T13:22:16;3.67;;;3.05;;
71236;SDS011;58984;51.960;5.582;2023-07-29T13:24:41;4.32;;;3.10;;
71236;SDS011;58984;51.960;5.582;2023-07-29T13:27:07;4.03;;;3.38;;
71236;SDS011;58984;51.960;5.582;2023-07-29T13:29:33;4.65;;;3.70;;
71236;SDS011;58984;51.960;5.582;2023-07-29T13:31:58;3.72;;;3.30;;
71236;SDS011;58984;51.960;5.582;2023-07-29T13:34:24;5.30;;;3.47;;
71236;SDS011;58984;51.960;5.582;2023-07-29T13:36:49;3.80;;;3.25;;
71236;SDS011;58984;51.960;5.582;2023-07-29T13:39:15;3.70;;;3.28;;
71236;SDS011;58984;51.960;5.582;2023-07-29T13:41:41;3.47;;;2.75;;
71236;SDS011;58984;51.960;5.582;2023-07-29T13:44:06;4.40;;;3.28;;
71236;SDS011;58984;51.960;5.582;2023-07-29T13:46:32;3.42;;;2.78;;
71236;SDS011;58984;51.960;5.582;2023-07-29T13:48:58;3.60;;;3.28;;
71236;SDS011;58984;51.960;5.582;2023-07-29T13:51:23;3.50;;;2.80;;
71236;SDS011;58984;51.960;5.582;2023-07-29T13:53:49;3.50;;;2.97;;
71236;SDS011;58984;51.960;5.582;2023-07-29T13:56:15;4.05;;;2.88;;
71236;SDS011;58984;51.960;5.582;2023-07-29T13:58:40;3.80;;;2.55;;
71236;SDS011;58984;51.960;5.582;2023-07-29T14:01:06;2.90;;;2.70;;
71236;SDS011;58984;51.960;5.582;2023-07-29T14:03:31;3.20;;;2.90;;
71236;SDS011;58984;51.960;5.582;2023-07-29T14:05:57;3.05;;;2.75;;
71236;SDS011;58984;51.960;5.582;2023-07-29T14:08:23;4.30;;;2.70;;
71236;SDS011;58984;51.960;5.582;2023-07-29T14:10:49;2.45;;;2.25;;
71236;SDS011;58984;51.960;5.582;2023-07-29T14:13:14;3.72;;;2.90;;
71236;SDS011;58984;51.960;5.582;2023-07-29T14:15:40;3.65;;;2.47;;
71236;SDS011;58984;51.960;5.582;2023-07-29T14:18:06;2.58;;;2.28;;
71236;SDS011;58984;51.960;5.582;2023-07-29T14:20:32;2.40;;;2.05;;
71236;SDS011;58984;51.960;5.582;2023-07-29T14:22:58;2.95;;;2.65;;
71236;SDS011;58984;51.960;5.582;2023-07-29T14:25:23;3.10;;;2.60;;
71236;SDS011;58984;51.960;5.582;2023-07-29T14:27:49;2.30;;;2.10;;
71236;SDS011;58984;51.960;5.582;2023-07-29T14:30:15;3.15;;;2.38;;
71236;SDS011;58984;51.960;5.582;2023-07-29T14:32:40;2.25;;;2.05;;
71236;SDS011;58984;51.960;5.582;2023-07-29T14:35:06;2.50;;;2.30;;
71236;SDS011;58984;51.960;5.582;2023-07-29T14:37:33;2.40;;;2.20;;
71236;SDS011;58984;51.960;5.582;2023-07-29T14:39:59;3.90;;;2.30;;
71236;SDS011;58984;51.960;5.582;2023-07-29T14:42:26;3.03;;;2.03;;
71236;SDS011;58984;51.960;5.582;2023-07-29T14:44:51;2.20;;;2.00;;
71236;SDS011;58984;51.960;5.582;2023-07-29T14:47:17;4.15;;;2.50;;
71236;SDS011;58984;51.960;5.582;2023-07-29T14:49:43;3.78;;;2.30;;
71236;SDS011;58984;51.960;5.582;2023-07-29T14:52:09;4.50;;;2.35;;
71236;SDS011;58984;51.960;5.582;2023-07-29T14:54:35;2.30;;;2.10;;
71236;SDS011;58984;51.960;5.582;2023-07-29T14:57:01;2.75;;;2.10;;
71236;SDS011;58984;51.960;5.582;2023-07-29T14:59:27;2.83;;;2.55;;
71236;SDS011;58984;51.960;5.582;2023-07-29T15:01:53;3.00;;;2.47;;
71236;SDS011;58984;51.960;5.582;2023-07-29T15:04:18;2.58;;;2.05;;
71236;SDS011;58984;51.960;5.582;2023-07-29T15:06:44;2.40;;;2.20;;
71236;SDS011;58984;51.960;5.582;2023-07-29T15:09:09;2.80;;;2.20;;